Etusivu
METAR-TAF:

METAR-TAF

Lentoasemat :

Pontiac Municipal Airport

Pontiac, Illinois, Yhdysvallat

Leveyspiiri: 40-55-25N, Pituuspiiri: 088-37-31W, korkeus merenpinnasta: 201 m

Tämänhetkinen sää

Tämä raportti tehtiin 39 minuuttia sitten, kello 03.35 UTC
Tuuli 6 kn idästä/kaakosta
Lämpötila 3°C
Kosteus 100%
Ilmanpaine 1021 hPa
Näkyvyys: 16.1 km
selkeää

METAR: KPNT 050335Z AUTO 12006KT 10SM CLR 03/03 A3014 RMK AO2 T00330028

Aika: 23:14 (04:14 UTC)


TAF: puuttuu

Säähavainnot ja -ennusteet yli 4000 lentoasemalta (METAR- ja TAF-raportit).

Käytössä olevat sääasemat on merkitty karttaan keltaisilla ja punaisilla pisteillä.

Aseta hiiri pisteen päälle nähdäksesi sääaseman nimen.

Klikkaa sitten nähdäksesi säähavainnot ja -ennusteet.

Kartan vaihtaminen: klikkaa mustalla rastilla varustettuja vihreitä pisteitä, niin voit zoomata sisään; viivalla varustettua vihreää pistettä, niin voit zoomata ulos tai vihreitä nuolia, niin pääset viereisille kartoille.


METAR-TAF: